Scappoose, Oregon
Current Conditions -  °F | °C
As of 10:35 PM on Thursday 30 Oct 2014 (Local Time) from KSPB Reporting Station
Light Rain Light Rain  
Wind Chill: 57°   Ceiling: 1400
Heat Index: 57°   Visibility: 5mi
Dew Point: 56°   Wind: 8mph
Humidity: 96%   Direction: 150°SSE
Pressure: 29.77"   Gusts: NA
Location:  45.75°N, 122.88°W
Report Text: KSPB 310535Z AUTO 15007KT 5SM -RA BR SCT005 BKN014 OVC070 14/13 A2977 RMK AO2 P0005 T01390133
Loading
Personal Weather Stations






























Interactive Weather Map New forecast layout! Learn more

10-Day Weather Forecast

Advertisements
Track Severe Weather on mobile